Time;durP1;ratioP1;P1;durP2;ratioP2;P2;SDS_P1;SDS_P2;PMS_P1;PMS_P2;Temp;Humidity;BMP_temperature;BMP_pressure;BME280_temperature;BME280_humidity;BME280_pressure;Samples;Min_cycle;Max_cycle;Signal;HPM_P1;HPM_P2
2022/10/18 00:00:21;;;;;;;13.52;4.32;;;;;;;14.50;48.93;100426.66;5074284;28;20035;-77
2022/10/18 00:02:46;;;;;;;4.50;2.30;;;;;;;14.45;49.04;100422.56;5073391;28;20079;-77
2022/10/18 00:05:12;;;;;;;5.68;2.50;;;;;;;14.50;48.86;100429.28;5073660;28;20485;-76
2022/10/18 00:07:37;;;;;;;5.15;2.30;;;;;;;14.45;49.21;100424.31;5074664;28;20039;-76
2022/10/18 00:10:03;;;;;;;7.43;2.72;;;;;;;14.44;49.22;100420.03;5096302;28;20513;-76
2022/10/18 00:12:31;;;;;;;3.70;2.20;;;;;;;14.43;49.46;100423.59;5078242;28;20024;-76
2022/10/18 00:14:57;;;;;;;5.75;2.50;;;;;;;14.40;49.28;100415.91;5061582;28;20107;-76
2022/10/18 00:17:22;;;;;;;3.97;2.22;;;;;;;14.38;49.27;100412.53;5077987;28;20102;-76
2022/10/18 00:19:49;;;;;;;3.95;2.10;;;;;;;14.35;49.20;100410.94;5060903;28;20036;-76
2022/10/18 00:22:14;;;;;;;3.80;2.30;;;;;;;14.34;49.17;100411.88;5077769;28;20032;-76
2022/10/18 00:24:40;;;;;;;3.15;2.03;;;;;;;14.33;49.33;100411.97;5077637;28;20039;-76
2022/10/18 00:27:05;;;;;;;5.05;2.60;;;;;;;14.32;49.32;100412.94;5077801;28;20475;-77
2022/10/18 00:29:31;;;;;;;6.78;2.30;;;;;;;14.25;49.35;100397.56;5077568;28;20060;-76
2022/10/18 00:31:56;;;;;;;5.13;2.20;;;;;;;14.28;49.10;100402.63;5077892;28;20035;-76
2022/10/18 00:34:22;;;;;;;3.75;2.50;;;;;;;14.17;49.48;100394.63;5094589;28;20035;-76
2022/10/18 00:36:47;;;;;;;4.90;2.28;;;;;;;14.20;49.16;100399.66;5060865;28;20059;-76
2022/10/18 00:39:17;;;;;;;4.97;2.30;;;;;;;14.14;49.54;100389.56;5060715;28;20036;-76
2022/10/18 00:41:43;;;;;;;5.22;2.67;;;;;;;14.15;49.50;100391.22;5077516;28;20487;-77
2022/10/18 00:44:12;;;;;;;3.42;2.17;;;;;;;14.17;49.56;100388.50;5077518;28;20035;-76
2022/10/18 00:46:38;;;;;;;5.10;2.25;;;;;;;14.14;49.59;100389.56;5095779;28;20070;-75
2022/10/18 00:49:09;;;;;;;3.80;2.20;;;;;;;14.10;49.43;100385.44;5094344;28;20043;-77
2022/10/18 00:51:43;;;;;;;3.38;2.22;;;;;;;14.07;49.57;100385.63;5077381;28;20028;-77
2022/10/18 00:54:10;;;;;;;4.72;2.22;;;;;;;14.06;49.60;100376.09;5077896;28;20047;-76
2022/10/18 00:56:35;;;;;;;3.88;2.20;;;;;;;14.06;49.33;100383.97;5044131;28;20028;-76
2022/10/18 00:59:01;;;;;;;5.57;2.10;;;;;;;14.04;49.31;100373.56;5077531;28;20176;-76
2022/10/18 01:01:26;;;;;;;5.00;2.28;;;;;;;14.03;49.47;100369.25;5077165;28;20517;-77
2022/10/18 01:03:52;;;;;;;3.88;2.20;;;;;;;13.94;49.36;100362.78;5076919;28;20028;-77
2022/10/18 01:06:18;;;;;;;5.97;2.38;;;;;;;13.97;49.53;100379.31;5076993;28;20062;-77
2022/10/18 01:09:15;;;;;;;5.82;2.28;;;;;;;13.95;49.59;100379.41;5060364;28;20498;-78
2022/10/18 01:12:06;;;;;;;4.88;2.55;;;;;;;13.94;49.38;100375.09;5079673;28;20063;-76
2022/10/18 01:15:16;;;;;;;3.30;2.08;;;;;;;13.91;49.54;100368.22;5081130;28;20044;-76
2022/10/18 01:17:57;;;;;;;4.00;2.30;;;;;;;13.83;49.72;100351.31;4993186;28;20453;-76
2022/10/18 01:20:46;;;;;;;3.78;2.35;;;;;;;13.78;49.91;100351.59;4976960;28;20069;-76
2022/10/18 01:23:19;;;;;;;4.38;2.00;;;;;;;13.80;49.74;100354.97;4978798;28;20536;-75
2022/10/18 01:25:59;;;;;;;3.03;1.98;;;;;;;13.80;49.87;100352.34;4961056;28;20038;-76
2022/10/18 01:28:25;;;;;;;4.28;2.28;;;;;;;13.78;49.70;100356.84;4976326;28;20049;-75
2022/10/18 01:31:02;;;;;;;3.47;2.40;;;;;;;13.75;49.76;100352.63;4992910;28;20526;-76
2022/10/18 01:33:37;;;;;;;6.35;2.78;;;;;;;13.74;49.70;100356.22;4976750;28;20068;-76
2022/10/18 01:36:20;;;;;;;4.30;2.33;;;;;;;13.74;49.70;100348.34;4976542;28;20568;-76
2022/10/18 01:38:46;;;;;;;4.38;2.45;;;;;;;13.67;49.81;100351.44;4962160;28;20038;-76
2022/10/18 01:41:12;;;;;;;3.90;2.33;;;;;;;13.69;49.82;100355.63;4976664;28;20472;-77
2022/10/18 01:43:38;;;;;;;5.72;2.40;;;;;;;13.66;49.94;100348.00;4976474;28;20063;-77
2022/10/18 01:46:03;;;;;;;6.10;2.40;;;;;;;13.67;49.95;100346.19;4960545;28;20038;-77
2022/10/18 01:48:29;;;;;;;3.10;2.40;;;;;;;13.66;49.78;100353.25;4960325;28;20387;-76
2022/10/18 01:50:54;;;;;;;5.60;2.30;;;;;;;13.67;49.75;100348.81;4992530;28;20503;-76
2022/10/18 01:53:25;;;;;;;4.55;2.28;;;;;;;13.61;49.95;100343.97;5006033;28;20081;-76
2022/10/18 01:56:02;;;;;;;6.13;2.45;;;;;;;13.59;50.11;100346.69;5059649;28;20035;-76
2022/10/18 01:58:30;;;;;;;4.07;2.35;;;;;;;13.62;50.10;100353.53;5062842;28;20040;-76
2022/10/18 02:01:45;;;;;;;5.43;2.00;;;;;;;13.61;50.20;100351.84;5056151;28;20509;-76
2022/10/18 02:04:19;;;;;;;3.50;2.20;;;;;;;13.60;50.13;100352.75;4986911;28;20537;-77
2022/10/18 02:06:44;;;;;;;5.97;2.33;;;;;;;13.55;49.92;100340.78;5028491;28;20538;-76
2022/10/18 02:09:17;;;;;;;5.88;2.80;;;;;;;13.54;50.08;100343.50;5011765;28;20038;-76
2022/10/18 02:11:43;;;;;;;4.13;2.20;;;;;;;13.54;50.18;100351.38;4995329;28;20540;-76
2022/10/18 02:14:11;;;;;;;3.80;2.25;;;;;;;13.48;50.33;100344.72;5011886;28;20099;-76
2022/10/18 02:16:39;;;;;;;5.10;2.30;;;;;;;13.45;50.27;100334.44;5028033;28;20084;-76
2022/10/18 02:19:09;;;;;;;;;;;;;;;13.48;50.37;100349.97;5021531;28;20493;-77
2022/10/18 02:21:35;;;;;;;;;;;;;;;13.46;50.54;100349.25;5014921;28;19917;-77
2022/10/18 02:24:00;;;;;;;;;;;;;;;13.49;50.21;100345.56;5048536;28;19924;-77
2022/10/18 02:26:25;;;;;;;;;;;;;;;13.49;50.12;100348.19;5031766;28;19913;-76
2022/10/18 02:28:50;;;;;;;;;;;;;;;13.51;49.79;100347.16;5048245;28;20352;-76
2022/10/18 02:31:26;;;;;;;;;;;;;;;13.52;50.13;100342.75;5031114;28;19963;-79
2022/10/18 02:33:57;;;;;;;;;;;;;;;13.50;50.10;100347.25;5015069;28;19921;-77
2022/10/18 02:36:25;;;;;;;;;;;;;;;13.49;49.98;100349.03;5031563;28;19913;-76
2022/10/18 02:38:51;;;;;;;;;;;;;;;13.47;50.00;100345.69;5031605;28;19913;-76
2022/10/18 02:41:26;;;;;;;;;;;;;;;13.47;50.29;100340.44;5070994;28;20007;-76
2022/10/18 02:43:51;;;;;;;;;;;;;;;13.47;50.27;100345.69;5056268;28;19912;-76
2022/10/18 02:46:17;;;;;;;;;;;;;;;13.47;50.05;100344.81;5055668;28;20011;-76
2022/10/18 02:48:42;;;;;;;;;;;;;;;13.45;50.30;100347.53;5039108;28;19920;-76
2022/10/18 02:51:08;;;;;;;;;;;;;;;13.44;50.38;100343.25;5055304;28;20299;-77
2022/10/18 02:53:33;;;;;;;;;;;;;;;13.46;50.05;100345.78;5092167;28;20025;-76
2022/10/18 02:55:58;;;;;;;;;;;;;;;13.44;50.29;100343.25;5058888;28;19965;-76
2022/10/18 02:58:23;;;;;;;;;;;;;;;13.43;50.33;100338.09;5075138;28;19912;-75
2022/10/18 03:00:49;;;;;;;;;;;;;;;13.41;50.43;100342.59;5074789;28;20379;-77
2022/10/18 03:03:15;;;;;;;;;;;;;;;13.40;50.28;100341.75;5075296;28;19919;-77
2022/10/18 03:05:40;;;;;;;;;;;;;;;13.39;50.37;100340.06;5075673;28;20393;-77
2022/10/18 03:08:05;;;;;;;;;;;;;;;13.39;50.77;100342.69;5075337;28;19912;-77
2022/10/18 03:10:30;;;;;;;;;;;;;;;13.38;50.71;100348.88;5058026;28;19912;-77
2022/10/18 03:12:56;;;;;;;;;;;;;;;13.37;50.89;100340.16;5058441;28;20003;-77
2022/10/18 03:15:21;;;;;;;;;;;;;;;13.35;50.54;100342.03;5075375;28;19919;-77
2022/10/18 03:17:46;;;;;;;;;;;;;;;13.33;50.82;100345.69;5074963;28;19920;-77
2022/10/18 03:20:12;;;;;;;;;;;;;;;13.32;50.85;100344.81;5075214;28;19941;-77
2022/10/18 03:22:38;;;;;;;;;;;;;;;13.31;50.85;100345.75;5075178;28;19912;-76
2022/10/18 03:25:03;;;;;;;;;;;;;;;13.33;50.75;100351.78;5074914;28;19916;-78
2022/10/18 03:27:28;;;;;;;;;;;;;;;13.32;50.82;100354.47;5074881;28;20466;-78
2022/10/18 03:29:54;;;;;;;;;;;;;;;13.29;50.67;100360.75;5075377;28;20375;-78
2022/10/18 03:32:19;;;;;;;;;;;;;;;13.28;50.83;100360.84;5057966;28;19923;-77
2022/10/18 03:34:44;;;;;;;;;;;;;;;13.29;50.68;100362.53;5075346;28;20375;-77
2022/10/18 03:37:10;;;;;;;;;;;;;;;13.27;50.65;100360.00;5058179;28;19912;-75
2022/10/18 03:39:35;;;;;;;;;;;;;;;13.27;50.87;100365.25;5075196;28;19919;-77
2022/10/18 03:42:00;;;;;;;;;;;;;;;13.26;50.61;100365.34;5074269;28;19912;-77
2022/10/18 03:44:25;;;;;;;;;;;;;;;13.26;50.50;100360.91;5074730;28;19912;-77
2022/10/18 03:46:51;;;;;;;;;;;;;;;13.21;50.86;100358.59;5093306;28;19919;-77
2022/10/18 03:49:16;;;;;;;;;;;;;;;13.19;50.66;100365.72;5074965;28;19912;-77
2022/10/18 03:51:41;;;;;;;;;;;;;;;13.17;50.86;100357.09;5057647;28;19916;-77
2022/10/18 03:54:07;;;;;;;;;;;;;;;13.18;50.53;100360.56;5074481;28;19926;-78
2022/10/18 03:56:32;;;;;;;;;;;;;;;13.17;50.63;100367.59;5057594;28;20026;-77
2022/10/18 03:58:57;;;;;;;;;;;;;;;13.14;50.58;100362.53;5074892;28;19919;-78
2022/10/18 04:01:23;;;;;;;;;;;;;;;13.12;50.90;100355.69;5092949;28;19916;-78
2022/10/18 04:03:48;;;;;;;;;;;;;;;13.12;50.77;100353.91;5074795;28;19912;-77
2022/10/18 04:06:13;;;;;;;;;;;;;;;13.12;50.82;100350.44;5057943;28;19912;-78
2022/10/18 04:08:38;;;;;;;;;;;;;;;13.12;50.66;100358.31;5074882;28;20383;-78
2022/10/18 04:11:07;;;;;;;;;;;;;;;13.10;50.65;100355.78;5075120;28;19912;-77
2022/10/18 04:13:33;;;;;;;;;;;;;;;13.11;50.52;100354.84;5074468;28;19923;-78
2022/10/18 04:15:59;;;;;;;;;;;;;;;13.09;50.77;100351.47;5093097;28;19912;-75
2022/10/18 04:18:24;;;;;;;;;;;;;;;13.10;50.53;100354.94;5074609;28;20015;-77
2022/10/18 04:20:49;;;;;;;;;;;;;;;13.07;50.39;100353.34;5074397;28;19919;-76
2022/10/18 04:23:15;;;;;;;;;;;;;;;13.05;50.65;100357.00;5074701;28;19912;-78
2022/10/18 04:25:40;;;;;;;;;;;;;;;13.04;50.34;100358.78;5074863;28;20350;-77
2022/10/18 04:28:05;;;;;;;;;;;;;;;13.04;50.35;100361.38;5074494;28;20010;-77
2022/10/18 04:30:31;;;;;;;;;;;;;;;13.04;50.50;100356.16;5057022;28;19981;-77
2022/10/18 04:32:56;;;;;;;;;;;;;;;13.05;50.58;100357.00;5092347;28;19919;-77
2022/10/18 04:35:23;;;;;;;;;;;;;;;13.04;50.42;100350.91;5074239;28;19943;-77
2022/10/18 04:37:48;;;;;;;;;;;;;;;13.03;50.53;100351.88;5091937;28;19915;-77
2022/10/18 04:40:14;;;;;;;;;;;;;;;13.14;50.23;100357.28;5074262;28;19965;-78
2022/10/18 04:42:39;;;;;;;;;;;;;;;13.37;50.00;100357.69;5074013;28;20382;-79
2022/10/18 04:45:04;;;;;;;;;;;;;;;13.61;49.44;100357.91;5074530;28;19916;-81
2022/10/18 04:47:30;;;;;;;;;;;;;;;13.93;48.55;100362.88;5091601;28;19912;-79
2022/10/18 04:49:55;;;;;;;;;;;;;;;14.30;47.73;100356.09;5092172;28;20003;-79
2022/10/18 04:52:20;;;;;;;;;;;;;;;14.70;47.21;100359.66;5091935;28;20395;-79
2022/10/18 04:54:46;;;;;;;;;;;;;;;15.11;46.14;100358.59;5077081;28;19916;-79
2022/10/18 04:57:11;;;;;;;;;;;;;;;15.54;45.18;100353.81;5077505;28;19919;-79
2022/10/18 04:59:36;;;;;;;;;;;;;;;16.00;44.27;100359.34;5096348;28;20338;-80
2022/10/18 05:02:02;;;;;;;;;;;;;;;16.44;43.21;100353.41;5096197;28;19934;-79
2022/10/18 05:04:27;;;;;;;;;;;;;;;16.92;42.08;100354.25;5095971;28;19912;-79
2022/10/18 05:06:53;;;;;;;;;;;;;;;17.36;41.17;100352.59;5077075;28;19974;-80
2022/10/18 05:09:21;;;;;;;;;;;;;;;17.79;40.27;100345.66;5075523;28;19955;-78
2022/10/18 05:11:46;;;;;;;;;;;;;;;18.21;39.24;100351.09;5100620;28;20368;-79
2022/10/18 05:14:11;;;;;;;;;;;;;;;18.59;38.60;100357.63;5057222;28;19912;-79
2022/10/18 05:16:37;;;;;;;;;;;;;;;18.96;37.92;100346.56;5040522;28;19919;-79
2022/10/18 05:19:03;;;;;;;;;;;;;;;19.31;37.16;100351.47;5061371;28;20376;-81
2022/10/18 05:21:28;;;;;;;;;;;;;;;19.63;36.75;100347.78;5087148;28;19917;-80
2022/10/18 05:23:54;;;;;;;;;;;;;;;19.98;36.24;100349.13;5059606;28;20294;-80
2022/10/18 05:26:20;;;;;;;;;;;;;;;20.30;35.60;100350.66;5056472;28;19956;-79
2022/10/18 05:28:45;;;;;;;;;;;;;;;20.67;35.28;100349.97;5077207;28;19919;-80
2022/10/18 05:31:10;;;;;;;;;;;;;;;21.01;34.90;100348.59;5076864;28;19958;-79
2022/10/18 05:33:36;;;;;;;;;;;;;;;21.36;34.11;100353.19;5076488;28;20007;-80
2022/10/18 05:36:01;;;;;;;;;;;;;;;21.74;33.87;100356.63;5094386;28;20374;-80
2022/10/18 05:38:29;;;;;;;;;;;;;;;22.08;33.09;100355.16;5076255;28;19919;-80
2022/10/18 05:40:54;;;;;;;;;;;;;;;22.50;32.63;100352.72;5074661;28;20015;-77
2022/10/18 05:43:20;;;;;;;;;;;;;;;22.89;31.98;100349.63;5075127;28;19969;-80
2022/10/18 05:45:49;;;;;;;;;;;;;;;23.25;31.44;100346.84;5062196;28;19930;-80
2022/10/18 05:48:14;;;;;;;;;;;;;;;23.65;31.02;100347.13;5056340;28;20280;-81
2022/10/18 05:50:39;;;;;;;;;;;;;;;24.06;30.44;100354.41;5057269;28;19951;-79
2022/10/18 05:53:05;;;;;;;;;;;;;;;24.42;29.97;100344.22;5073036;28;20344;-78
2022/10/18 05:55:30;;;;;;;;;;;;;;;24.81;30.11;100354.22;5076391;28;19970;-85
2022/10/18 05:57:55;;;;;;;;;;;;;;;25.24;30.34;100353.94;5077815;28;19966;-85
2022/10/18 06:00:21;;;;;;;;;;;;;;;25.69;28.80;100352.38;5074583;28;19912;-85
2022/10/18 06:02:46;;;;;;;;;;;;;;;26.08;28.06;100354.16;5073593;28;19966;-81
2022/10/18 06:05:11;;;;;;;;;;;;;;;26.46;27.47;100359.53;5090026;28;19913;-81
2022/10/18 06:07:37;;;;;;;;;;;;;;;26.89;26.22;100356.28;5090042;28;19912;-83
2022/10/18 06:10:02;;;;;;;;;;;;;;;27.25;25.75;100359.03;5075090;28;19912;-81
2022/10/18 06:12:27;;;;;;;;;;;;;;;27.55;25.25;100360.88;5056595;28;20391;-82
2022/10/18 06:14:53;;;;;;;;;;;;;;;27.82;24.91;100356.63;5073604;28;19920;-79
2022/10/18 06:17:18;;;;;;;;;;;;;;;28.16;24.64;100360.50;5074012;28;19999;-74
2022/10/18 06:19:43;;;;;;;;;;;;;;;27.89;24.37;100357.50;5094430;28;20034;-79
2022/10/18 06:22:12;;;;;;;;;;;;;;;27.69;24.81;100359.16;5076228;28;19949;-79
2022/10/18 06:24:37;;;;;;;;;;;;;;;27.58;25.46;100357.81;5075776;28;19912;-84
2022/10/18 06:27:08;;;;;;;;;;;;;;;27.57;25.46;100361.53;5093310;28;20014;-77
2022/10/18 06:29:36;;;;;;;;;;;;;;;27.50;25.01;100361.44;5095065;28;19927;-77
2022/10/18 06:32:02;;;;;;;;;;;;;;;27.43;25.09;100355.97;5102180;28;19923;-78
2022/10/18 06:34:27;;;;;;;;;;;;;;;27.53;24.62;100353.03;5073871;28;20284;-74
2022/10/18 06:36:52;;;;;;;;;;;;;;;28.45;24.95;100350.59;5055724;28;19916;-79
2022/10/18 06:39:18;;;;;;;;;;;;;;;29.51;24.42;100355.81;5073389;28;20450;-76
2022/10/18 06:41:43;;;;;;;;;;;;;;;30.68;23.50;100355.56;5039273;28;19917;-73
2022/10/18 06:44:13;;;;;;;;;;;;;;;31.77;22.47;100346.84;5055926;28;19999;-77
2022/10/18 06:46:41;;;;;;;;;;;;;;;32.79;20.75;100344.78;5058815;28;19919;-81
2022/10/18 06:49:07;;;;;;;;;;;;;;;33.87;19.34;100345.13;5078857;28;20453;-78
2022/10/18 06:51:32;;;;;;;;;;;;;;;34.84;18.63;100343.09;5077694;28;20006;-74
2022/10/18 06:53:57;;;;;;;;;;;;;;;35.69;17.12;100340.69;5071820;28;19920;-75
2022/10/18 06:56:22;;;;;;;;;;;;;;;36.22;16.10;100333.16;5057909;28;19985;-76
2022/10/18 06:58:48;;;;;;;;;;;;;;;36.41;15.86;100336.47;5073511;28;19962;-77
2022/10/18 07:01:15;;;;;;;;;;;;;;;36.32;15.85;100327.09;5065633;28;19916;-77
2022/10/18 07:03:44;;;;;;;;;;;;;;;35.99;16.48;100329.56;5073836;28;19916;-77
2022/10/18 07:06:10;;;;;;;;;;;;;;;35.65;17.01;100328.66;5082230;28;20424;-74
2022/10/18 07:08:35;;;;;;;;;;;;;;;35.12;18.29;100317.91;5065465;28;20010;-79
2022/10/18 07:11:00;;;;;;;;;;;;;;;34.55;18.02;100325.88;5065677;28;20395;-76
2022/10/18 07:13:26;;;;;;;;;;;;;;;34.12;18.72;100317.00;5074364;28;20410;-78
2022/10/18 07:15:59;;;;;;;;;;;;;;;33.86;18.52;100321.81;5075158;28;20057;-82
2022/10/18 07:18:24;;;;;;;;;;;;;;;33.69;19.20;100312.66;5057716;28;20302;-85
2022/10/18 07:20:49;;;;;;;;;;;;;;;33.56;18.50;100316.41;5074766;28;19912;-81
2022/10/18 07:23:14;;;;;;;;;;;;;;;33.43;18.72;100308.47;5057675;28;19919;-78
2022/10/18 07:25:40;;;;;;;;;;;;;;;33.32;18.27;100308.19;5075603;28;19973;-77
2022/10/18 07:28:05;;;;;;;;;;;;;;;33.24;19.39;100305.81;5093537;28;19919;-84
2022/10/18 07:30:30;;;;;;;;;;;;;;;33.15;19.88;100302.56;5090971;28;19923;-81
2022/10/18 07:32:56;;;;;;;;;;;;;;;33.14;19.17;100298.19;5066779;28;19912;-86
2022/10/18 07:35:21;;;;;;;;;;;;;;;33.13;19.36;100301.97;5068382;28;19919;-77
2022/10/18 07:37:46;;;;;;;;;;;;;;;33.17;18.76;100302.31;5064411;28;19912;-75
2022/10/18 07:40:12;;;;;;;;;;;;;;;33.21;18.88;100295.44;5072948;28;20284;-77
2022/10/18 07:42:37;;;;;;;;;;;;;;;33.30;20.14;100294.06;5064333;28;19923;-86
2022/10/18 07:45:03;;;;;;;;;;;;;;;32.59;20.22;100288.22;5065982;28;20704;-80
2022/10/18 07:47:28;;;;;;;;;;;;;;;32.17;20.83;100288.00;5060409;28;19958;-78
2022/10/18 07:49:54;;;;;;;;;;;;;;;32.09;20.19;100291.00;5057034;28;19919;-77
2022/10/18 07:52:19;;;;;;;;;;;;;;;31.12;20.54;100300.06;5073143;28;20446;-79
2022/10/18 07:54:44;;;;;;;;;;;;;;;30.67;21.37;100286.50;5072702;28;19923;-75
2022/10/18 07:57:09;;;;;;;;;;;;;;;30.53;21.70;100295.66;5055185;28;19955;-75
2022/10/18 07:59:35;;;;;;;;;;;;;;;30.63;20.94;100288.81;5073417;28;19961;-77
2022/10/18 08:02:00;;;;;;;;;;;;;;;30.44;21.63;100277.03;5063918;28;19960;-75
2022/10/18 08:04:26;;;;;;;;;;;;;;;29.62;22.42;100272.81;5072307;28;19954;-72
2022/10/18 08:06:51;;;;;;;;;;;;;;;29.77;22.17;100268.09;5055992;28;19965;-74
2022/10/18 08:09:16;;;;;;;;;;;;;;;29.78;22.36;100275.97;5091160;28;19912;-75
2022/10/18 08:11:42;;;;;;;;;;;;;;;29.59;22.46;100268.72;5073413;28;19920;-83
2022/10/18 08:14:07;;;;;;;;;;;;;;;29.19;22.72;100266.75;5064886;28;19919;-78
2022/10/18 08:16:33;;;;;;;;;;;;;;;28.84;23.35;100265.94;5073380;28;19923;-82
2022/10/18 08:18:58;;;;;;;;;;;;;;;28.66;23.42;100266.47;5082584;28;20378;-78
2022/10/18 08:21:24;;;;;;;;;;;;;;;28.80;23.10;100259.31;5093465;28;19912;-81
2022/10/18 08:23:49;;;;;;;;;;;;;;;28.50;23.00;100262.22;5058838;28;20340;-78
2022/10/18 08:26:15;;;;;;;;;;;;;;;28.00;24.04;100256.91;5056842;28;19958;-77
2022/10/18 08:28:41;;;;;;;;;;;;;;;28.18;23.67;100248.41;5058746;28;19916;-79
2022/10/18 08:31:07;;;;;;;;;;;;;;;28.05;23.78;100250.97;5061817;28;19972;-78
2022/10/18 08:33:35;;;;;;;;;;;;;;;27.87;24.34;100246.88;5077198;28;19920;-77
2022/10/18 08:36:00;;;;;;;;;;;;;;;28.13;23.39;100250.81;5064040;28;19950;-78
2022/10/18 08:38:28;;;;;;;;;;;;;;;28.03;23.51;100242.28;5095504;28;20306;-77
2022/10/18 08:40:53;;;;;;;;;;;;;;;28.10;23.39;100243.16;5075222;28;19923;-83
2022/10/18 08:43:21;;;;;;;;;;;;;;;28.22;23.34;100238.91;5102117;28;19920;-84
2022/10/18 08:46:04;;;;;;;;;;;;;;;28.61;22.32;100239.41;5109240;28;19912;-86
2022/10/18 08:48:35;;;;;;;;;;;;;;;28.65;22.38;100229.88;5100569;28;19943;-82
2022/10/18 08:51:34;;;;;;;;;;;;;;;28.68;21.98;100230.31;5099805;28;19939;-85
2022/10/18 08:54:13;;;;;;;;;;;;;;;28.26;21.94;100220.53;5108001;28;19952;-85
2022/10/18 08:56:39;;;;;;;;;;;;;;;28.24;22.08;100227.97;5107669;28;19912;-81
2022/10/18 08:59:20;;;;;;;;;;;;;;;28.74;22.35;100214.44;5079888;28;19985;-84
2022/10/18 09:02:03;;;;;;;;;;;;;;;29.01;21.41;100210.81;5098963;28;19937;-85
2022/10/18 09:04:47;;;;;;;;;;;;;;;29.46;20.96;100213.03;5094345;28;19918;-83
2022/10/18 09:07:18;;;;;;;;;;;;;;;29.71;20.08;100215.91;5097620;28;19912;-82
2022/10/18 09:09:50;;;;;;;;;;;;;;;29.39;20.02;100213.00;5079491;28;19922;-76
2022/10/18 09:12:28;;;;;;;;;;;;;;;29.10;20.33;100200.72;5077778;28;20359;-80
2022/10/18 09:14:56;;;;;;;;;;;;;;;29.50;20.37;100194.59;5077613;28;19966;-77
2022/10/18 09:17:25;;;;;;;;;;;;;;;29.73;19.54;100196.88;5077725;28;20363;-77
2022/10/18 09:20:09;;;;;;;;;;;;;;;29.85;18.90;100195.25;5077513;28;20287;-80
2022/10/18 09:23:01;;;;;;;;;;;;;;;29.56;19.37;100191.09;5077688;28;19912;-82
2022/10/18 09:25:26;;;;;;;;;;;;;;;29.71;19.44;100185.50;5092449;28;19965;-79
2022/10/18 09:28:05;;;;;;;;;;;;;;;30.11;19.17;100182.81;5095457;28;19912;-76
2022/10/18 09:30:30;;;;;;;;;;;;;;;30.45;19.29;100175.47;5057862;28;19956;-78
2022/10/18 09:33:07;;;;;;;;;;;;;;;30.62;18.28;100184.75;5074979;28;19993;-79
2022/10/18 09:35:41;;;;;;;;;;;;;;;30.75;18.84;100177.66;5076593;28;20439;-75
2022/10/18 09:38:10;;;;;;;;;;;;;;;30.59;19.88;100182.47;5061852;28;19962;-82
2022/10/18 09:40:38;;;;;;;;;;;;;;;30.31;20.06;100174.66;5059756;28;20367;-78
2022/10/18 09:43:11;;;;;;;;;;;;;;;30.35;18.96;100172.34;5041290;28;20437;-79
2022/10/18 09:45:44;;;;;;;;;;;;;;;30.31;19.27;100166.56;5063593;28;19913;-83
2022/10/18 09:48:29;;;;;;;;;;;;;;;30.35;18.89;100166.97;5059491;28;19916;-82
2022/10/18 09:51:25;;;;;;;;;;;;;;;30.02;18.21;100159.84;5075238;28;20002;-78
2022/10/18 09:53:57;;;;;;;;;;;;;;;29.87;18.02;100158.22;5072098;28;19924;-78
2022/10/18 09:56:29;;;;;;;;;;;;;;;29.78;18.41;100154.84;5089500;28;20489;-80
2022/10/18 09:59:22;;;;;;;;;;;;;;;29.81;18.57;100150.13;5073230;28;19999;-80
2022/10/18 10:01:48;;;;;;;;;;;;;;;30.01;18.54;100142.00;5074084;28;19985;-81
2022/10/18 10:04:14;;;;;;;;;;;;;;;30.12;18.68;100141.38;5039457;28;20289;-76
2022/10/18 10:06:40;;;;;;;;;;;;;;;30.27;18.28;100127.66;5057004;28;19988;-79
2022/10/18 10:09:07;;;;;;;;;;;;;;;30.30;17.83;100119.97;5055893;28;19916;-80
2022/10/18 10:11:37;;;;;;;;;;;;;;;30.16;18.54;100120.22;5056470;28;19920;-80
2022/10/18 10:14:07;;;;;;;;;;;;;;;30.13;18.11;100106.16;5040459;28;20011;-80
2022/10/18 10:16:32;;;;;;;;;;;;;;;29.96;18.12;100099.56;5073882;28;19923;-77
2022/10/18 10:18:57;;;;;;;;;;;;;;;29.87;20.55;100090.91;5067103;28;19916;-86
2022/10/18 10:21:23;;;;;;;;;;;;;;;29.80;19.85;100078.50;5047998;28;19928;-85
2022/10/18 10:23:51;;;;;;;;;;;;;;;29.51;21.33;100085.94;5044353;28;19912;-79
2022/10/18 10:26:33;;;;;;;;;;;;;;;29.47;20.59;100080.16;5059346;28;19912;-81
2022/10/18 10:29:01;;;;;;;;;;;;;;;29.42;21.09;100064.66;5040005;28;20367;-82
2022/10/18 10:31:31;;;;;;;;;;;;;;;29.28;20.81;100062.19;5073432;28;19930;-82
2022/10/18 10:34:11;;;;;;;;;;;;;;;29.33;23.22;100062.38;5037329;28;20004;-76
2022/10/18 10:36:44;;;;;;;;;;;;;;;29.34;21.81;100056.00;5050802;28;20284;-78
2022/10/18 10:39:11;;;;;;;;;;;;;;;29.10;21.07;100062.75;5071785;28;19919;-81
2022/10/18 10:41:36;;;;;;;;;;;;;;;28.56;20.61;100057.31;5036672;28;20295;-76
2022/10/18 10:44:02;;;;;;;;;;;;;;;27.94;21.34;100043.84;5037186;28;19916;-77
2022/10/18 10:46:34;;;;;;;;;;;;;;;27.89;21.21;100038.22;5054052;28;19913;-73
2022/10/18 10:49:00;;;;;;;;;;;;;;;27.90;21.13;100033.69;5034788;28;19948;-73
2022/10/18 10:51:32;;;;;;;;;;;;;;;27.88;20.90;100033.03;5036328;28;19936;-73
2022/10/18 10:54:12;;;;;;;;;;;;;;;27.86;21.20;100027.88;5051347;28;20415;-75
2022/10/18 10:56:50;;;;;;;;;;;;;;;27.76;21.01;100020.19;5051259;28;19924;-74
2022/10/18 10:59:16;;;;;;;;;;;;;;;27.66;21.46;100006.31;5050626;28;19975;-73
2022/10/18 11:01:42;;;;;;;;;;;;;;;27.66;21.27;100010.84;5053600;28;20010;-72
2022/10/18 11:04:24;;;;;;;;;;;;;;;27.65;21.23;100009.19;5053221;28;20066;-74
2022/10/18 11:06:49;;;;;;;;;;;;;;;27.60;21.44;99997.19;5023553;28;19935;-74
2022/10/18 11:09:50;;;;;;;;;;;;;;;27.60;21.39;100002.56;5048493;28;19912;-75
2022/10/18 11:12:26;;;;;;;;;;;;;;;27.58;21.24;99996.59;4985831;28;19913;-74
2022/10/18 11:14:54;;;;;;;;;;;;;;;27.39;21.57;99995.44;4977559;28;19961;-73
2022/10/18 11:17:32;;;;;;;;;;;;;;;27.25;21.39;99991.81;4977827;28;19961;-73
2022/10/18 11:19:58;;;;;;;;;;;;;;;27.14;21.90;99984.31;4964831;28;20006;-74
2022/10/18 11:22:24;;;;;;;;;;;;;;;27.05;22.02;99980.09;4988912;28;20012;-74
2022/10/18 11:24:49;;;;;;;;;;;;;;;26.92;21.74;99971.97;4960738;28;19929;-74
2022/10/18 11:27:15;;;;;;;;;;;;;;;26.81;22.06;99971.47;4977973;28;19914;-73
2022/10/18 11:29:40;;;;;;;;;;;;;;;26.70;22.35;99961.28;4962012;28;19928;-73
2022/10/18 11:32:05;;;;;;;;;;;;;;;26.52;22.43;99954.50;4964696;28;19950;-74
2022/10/18 11:34:31;;;;;;;;;;;;;;;26.42;22.93;99951.28;4988315;28;20012;-73
2022/10/18 11:37:06;;;;;;;;;;;;;;;26.21;23.24;99948.63;4988700;28;20305;-73
2022/10/18 11:39:53;;;;;;;;;;;;;;;26.06;23.17;99943.28;4989094;28;19914;-72
2022/10/18 11:42:21;;;;;;;;;;;;;;;25.91;23.39;99929.94;4977533;28;20364;-75
2022/10/18 11:44:49;;;;;;;;;;;;;;;25.81;23.49;99932.91;4986784;28;19921;-73
2022/10/18 11:47:27;;;;;;;;;;;;;;;25.71;23.96;99927.84;5042781;28;19912;-75
2022/10/18 11:50:01;;;;;;;;;;;;;;;25.60;23.94;99921.13;5032444;28;19946;-72
2022/10/18 11:52:53;;;;;;;;;;;;;;;25.47;24.52;99920.94;5032277;28;19916;-74
2022/10/18 11:55:30;;;;;;;;;;;;;;;25.38;27.93;99914.03;5007571;28;19913;-77
2022/10/18 11:58:02;;;;;;;;;;;;;;;25.22;25.74;99920.38;5041189;28;19913;-86
2022/10/18 12:00:31;;;;;;;;;;;;;;;25.06;25.47;99910.69;5024089;28;20387;-74
2022/10/18 12:03:00;;;;;;;;;;;;;;;24.98;25.35;99911.59;5038092;28;19987;-74
2022/10/18 12:05:26;;;;;;;;;;;;;;;24.94;25.36;99904.97;5035760;28;19940;-73
2022/10/18 12:08:00;;;;;;;;;;;;;;;24.80;25.45;99903.94;5061528;28;19966;-73
2022/10/18 12:10:26;;;;;;;;;;;;;;;24.66;25.21;99899.38;5061187;28;19939;-74
2022/10/18 12:12:52;;;;;;;;;;;;;;;24.60;25.09;99900.94;5036780;28;20368;-73
2022/10/18 12:15:21;;;;;;;;;;;;;;;24.54;25.21;99909.63;5019356;28;19916;-73
2022/10/18 12:17:48;;;;;;;;;;;;;;;24.38;25.33;99906.09;5044355;28;19913;-72
2022/10/18 12:20:20;;;;;;;;;;;;;;;24.24;25.65;99906.00;5019501;28;19920;-74
2022/10/18 12:23:04;;;;;;;;;;;;;;;24.27;25.69;99897.66;5053949;28;20394;-72
2022/10/18 12:25:31;;;;;;;;;;;;;;;24.26;25.41;99901.31;5043759;28;20351;-75
2022/10/18 12:27:59;;;;;;;;;;;;;;;24.08;25.20;99896.28;5058544;28;19913;-75
2022/10/18 12:30:41;;;;;;;;;;;;;;;24.05;25.20;99885.97;5056926;28;19975;-79